createdAt,value
2023-04-12T00:04:58.032Z,97926.69
2023-04-12T00:09:59.997Z,97914.91
2023-04-12T00:15:01.960Z,97910.31
2023-04-12T00:20:13.619Z,97912.13
2023-04-12T00:25:15.571Z,97898.88
2023-04-12T00:30:17.722Z,97888.97
2023-04-12T00:35:20.481Z,97882.59
2023-04-12T00:40:22.552Z,97883.59
2023-04-12T00:45:24.516Z,97878.19
2023-04-12T00:50:26.467Z,97874.28
2023-04-12T00:55:28.556Z,97868.78
2023-04-12T01:00:31.007Z,97866.41
2023-04-12T01:05:40.780Z,97851.03
2023-04-12T01:11:05.922Z,97844.53
2023-04-12T01:16:36.631Z,97837.66
2023-04-12T01:22:02.650Z,97842.72
2023-04-12T01:27:13.629Z,97837.75
2023-04-12T01:32:16.466Z,97822.97
2023-04-12T01:37:20.003Z,97819.09
2023-04-12T01:42:21.819Z,97824.31
2023-04-12T01:47:23.740Z,97805.78
2023-04-12T01:52:33.667Z,97797.41
2023-04-12T01:57:37.411Z,97784.38
2023-04-12T02:02:40.201Z,97782.69
2023-04-12T02:07:44.754Z,97782.88
2023-04-12T02:12:46.580Z,97783.41
2023-04-12T02:17:48.456Z,97771.31
2023-04-12T02:22:52.100Z,97762.41
2023-04-12T02:27:55.466Z,97757.28
2023-04-12T02:32:58.714Z,97756.75
2023-04-12T02:38:08.769Z,97766.31
2023-04-12T02:43:13.680Z,97760.47
2023-04-12T02:48:19.707Z,97765.41
2023-04-12T02:53:21.967Z,97753.06
2023-04-12T02:58:42.037Z,97755.75
2023-04-12T03:03:47.987Z,97755.69
2023-04-12T03:09:07.034Z,97748.28
2023-04-12T03:14:09.000Z,97743.94
2023-04-12T03:19:11.125Z,97731.81
2023-04-12T03:24:14.653Z,97718.28
2023-04-12T03:29:16.624Z,97712.81
2023-04-12T03:34:20.260Z,97703.16
2023-04-12T03:39:27.028Z,97703.94
2023-04-12T03:44:29.130Z,97694.09
2023-04-12T03:49:33.970Z,97698.72
2023-04-12T03:54:37.466Z,97691.84
2023-04-12T03:59:43.556Z,97684.41
2023-04-12T04:04:46.185Z,97688.03
2023-04-12T04:09:56.181Z,97675.41
2023-04-12T04:15:01.288Z,97667.00
2023-04-12T04:20:09.751Z,97660.03
2023-04-12T04:25:15.686Z,97653.63
2023-04-12T04:30:23.293Z,97663.47
2023-04-12T04:35:25.632Z,97653.53
2023-04-12T04:41:03.259Z,97649.06
2023-04-12T04:46:21.332Z,97644.41
2023-04-12T04:51:23.433Z,97648.66
2023-04-12T04:56:25.716Z,97644.03
2023-04-12T05:01:29.468Z,97646.75
2023-04-12T05:06:34.308Z,97651.03
2023-04-12T05:11:37.607Z,97641.44
2023-04-12T05:16:44.672Z,97646.50
2023-04-12T05:21:46.662Z,97646.84
2023-04-12T05:26:48.560Z,97631.81
2023-04-12T05:31:50.572Z,97636.09
2023-04-12T05:36:55.489Z,97625.06
2023-04-12T05:41:57.490Z,97624.94
2023-04-12T05:47:01.344Z,97612.50
2023-04-12T05:52:03.858Z,97598.59
2023-04-12T05:57:05.866Z,97590.13
2023-04-12T06:02:08.904Z,97581.19
2023-04-12T06:07:11.222Z,97572.66
2023-04-12T06:12:13.109Z,97555.97
2023-04-12T06:17:15.219Z,97547.31
2023-04-12T06:22:17.352Z,97541.59
2023-04-12T06:27:20.783Z,97529.00
2023-04-12T06:32:22.971Z,97519.13
2023-04-12T06:37:25.695Z,97516.16
2023-04-12T06:42:27.760Z,97507.47
2023-04-12T06:47:32.087Z,97499.38
2023-04-12T06:52:34.104Z,97495.84
2023-04-12T06:57:36.112Z,97482.19
2023-04-12T07:02:40.072Z,97477.84
2023-04-12T07:07:42.350Z,97468.69
2023-04-12T07:12:44.406Z,97469.28
2023-04-12T07:17:46.726Z,97462.44
2023-04-12T07:22:48.679Z,97459.03
2023-04-12T07:27:51.806Z,97456.41
2023-04-12T07:33:00.223Z,97453.72
2023-04-12T07:38:07.263Z,97446.69
2023-04-12T07:43:09.136Z,97444.31
2023-04-12T07:48:12.077Z,97440.38
2023-04-12T07:53:22.869Z,97422.81
2023-04-12T07:58:25.013Z,97405.97
2023-04-12T08:03:27.447Z,97404.34
2023-04-12T08:08:29.397Z,97386.38
2023-04-12T08:13:31.242Z,97380.88
2023-04-12T08:18:33.055Z,97382.41
2023-04-12T08:23:35.047Z,97369.81
2023-04-12T08:28:39.022Z,97369.44
2023-04-12T08:33:41.503Z,97368.56
2023-04-12T08:38:46.013Z,97359.47
2023-04-12T08:43:48.928Z,97341.50
2023-04-12T08:48:56.294Z,97331.28
2023-04-12T08:53:59.551Z,97337.31
2023-04-12T08:59:02.640Z,97323.13
2023-04-12T09:04:08.102Z,97324.50
2023-04-12T09:09:11.488Z,97325.16
2023-04-12T09:14:25.338Z,97317.97
2023-04-12T09:19:36.639Z,97316.91
2023-04-12T09:24:50.682Z,97302.56
2023-04-12T09:30:06.835Z,97299.31
2023-04-12T09:35:09.074Z,97281.44
2023-04-12T09:40:11.503Z,97276.25
2023-04-12T09:45:21.914Z,97275.28
2023-04-12T09:50:29.574Z,97264.22
2023-04-12T09:55:32.604Z,97260.09
2023-04-12T10:00:37.029Z,97247.09
2023-04-12T10:05:40.673Z,97244.00
2023-04-12T10:10:44.991Z,97229.47
2023-04-12T10:15:49.603Z,97218.81
2023-04-12T10:20:51.706Z,97213.88
2023-04-12T10:25:57.186Z,97196.31
2023-04-12T10:31:20.661Z,97197.13
2023-04-12T10:36:52.216Z,97189.03
2023-04-12T10:42:29.335Z,97188.59
2023-04-12T10:47:49.479Z,97178.25
2023-04-12T10:53:21.786Z,97164.16
2023-04-12T10:59:31.314Z,97152.19
2023-04-12T11:04:59.364Z,97154.59
2023-04-12T11:10:21.874Z,97148.06
2023-04-12T11:15:27.283Z,97128.56
2023-04-12T11:20:33.633Z,97123.34
2023-04-12T11:25:37.393Z,97119.97
2023-04-12T11:30:55.629Z,97105.81
2023-04-12T11:35:57.485Z,97099.84
2023-04-12T11:40:59.999Z,97099.91
2023-04-12T11:46:02.244Z,97093.06
2023-04-12T11:51:21.104Z,97075.41
2023-04-12T11:56:23.003Z,97067.13
2023-04-12T12:01:25.058Z,97053.75
2023-04-12T12:06:28.162Z,97039.53
2023-04-12T12:11:30.807Z,97034.75
2023-04-12T12:16:33.531Z,97027.31
2023-04-12T12:21:35.632Z,97014.28
2023-04-12T12:26:37.500Z,97002.53
2023-04-12T12:31:47.736Z,96983.78
2023-04-12T12:36:56.730Z,96967.25
2023-04-12T12:41:58.663Z,96969.91
2023-04-12T12:47:10.245Z,96968.97
2023-04-12T12:52:17.809Z,96966.13
2023-04-12T12:57:20.033Z,96957.31
2023-04-12T13:02:21.997Z,96958.72
2023-04-12T13:07:24.494Z,96941.84
2023-04-12T13:12:26.472Z,96942.25
2023-04-12T13:17:29.335Z,96934.56
2023-04-12T13:22:31.282Z,96926.03
2023-04-12T13:27:33.195Z,96928.31
2023-04-12T13:32:36.040Z,96918.41
2023-04-12T13:37:38.095Z,96921.03
2023-04-12T13:42:40.066Z,96916.06
2023-04-12T13:47:42.205Z,96918.63
2023-04-12T13:52:44.109Z,96913.69
2023-04-12T13:57:45.978Z,96898.63
2023-04-12T14:02:47.933Z,96898.78
2023-04-12T14:07:50.983Z,96907.47
2023-04-12T14:12:52.818Z,96910.91
2023-04-12T14:17:54.816Z,96914.91
2023-04-12T14:22:57.085Z,96918.34
2023-04-12T14:27:58.947Z,96922.13
2023-04-12T14:33:00.977Z,96912.03
2023-04-12T14:38:04.676Z,96913.09
2023-04-12T14:43:06.575Z,96915.66
2023-04-12T14:48:08.690Z,96913.66
2023-04-12T14:53:11.208Z,96920.13
2023-04-12T14:58:13.414Z,96926.16
2023-04-12T15:03:15.617Z,96912.53
2023-04-12T15:08:18.089Z,96905.94
2023-04-12T15:13:21.931Z,96909.81
2023-04-12T15:18:24.978Z,96908.34
2023-04-12T15:23:26.880Z,96902.25
2023-04-12T15:28:29.235Z,96898.81
2023-04-12T15:33:34.493Z,96901.19
2023-04-12T15:38:43.367Z,96893.81
2023-04-12T15:43:49.386Z,96896.94
2023-04-12T15:48:51.345Z,96886.81
2023-04-12T15:53:53.935Z,96875.16
2023-04-12T15:59:01.220Z,96877.59
2023-04-12T16:04:03.727Z,96872.22
2023-04-12T16:09:05.727Z,96866.78
2023-04-12T16:14:08.501Z,96862.25
2023-04-12T16:19:11.160Z,96856.06
2023-04-12T16:24:13.445Z,96838.59
2023-04-12T16:29:15.637Z,96825.13
2023-04-12T16:34:21.886Z,96819.56
2023-04-12T16:39:23.705Z,96819.84
2023-04-12T16:44:25.527Z,96797.63
2023-04-12T16:49:27.904Z,96790.72
2023-04-12T16:54:30.568Z,96781.56
2023-04-12T16:59:33.654Z,96769.53
2023-04-12T17:04:35.872Z,96763.75
2023-04-12T17:09:37.750Z,96764.94
2023-04-12T17:14:39.615Z,96757.13
2023-04-12T17:19:44.203Z,96748.16
2023-04-12T17:24:46.404Z,96752.81
2023-04-12T17:29:50.353Z,96757.03
2023-04-12T17:34:54.885Z,96759.78
2023-04-12T17:39:59.756Z,96748.94
2023-04-12T17:45:01.744Z,96750.88
2023-04-12T17:50:04.321Z,96749.69
2023-04-12T17:55:09.526Z,96745.88
2023-04-12T18:00:12.209Z,96749.75
2023-04-12T18:05:17.560Z,96747.81
2023-04-12T18:10:21.635Z,96747.50
2023-04-12T18:15:23.612Z,96734.28
2023-04-12T18:20:25.471Z,96744.34
2023-04-12T18:25:27.732Z,96742.78
2023-04-12T18:30:30.497Z,96744.34
2023-04-12T18:35:32.354Z,96751.41
2023-04-12T18:40:38.380Z,96736.31
2023-04-12T18:45:44.151Z,96735.16
2023-04-12T18:50:52.040Z,96740.59
2023-04-12T18:55:54.124Z,96751.50
2023-04-12T19:00:56.585Z,96754.22
2023-04-12T19:05:59.117Z,96746.84
2023-04-12T19:11:01.338Z,96750.03
2023-04-12T19:16:03.899Z,96752.00
2023-04-12T19:21:06.661Z,96759.00
2023-04-12T19:26:08.540Z,96760.09
2023-04-12T19:31:12.208Z,96743.00
2023-04-12T19:36:14.255Z,96741.03
2023-04-12T19:41:17.650Z,96717.38
2023-04-12T19:46:19.719Z,96708.75
2023-04-12T19:51:21.579Z,96702.44
2023-04-12T19:56:24.582Z,96694.63
2023-04-12T20:01:26.930Z,96682.56
2023-04-12T20:06:28.916Z,96678.28
2023-04-12T20:11:30.766Z,96690.75
2023-04-12T20:16:33.124Z,96710.66
2023-04-12T20:21:35.634Z,96705.81
2023-04-12T20:26:37.503Z,96724.50
2023-04-12T20:31:39.636Z,96728.78
2023-04-12T20:36:41.569Z,96743.19
2023-04-12T20:41:50.018Z,96742.41
2023-04-12T20:46:52.938Z,96758.28
2023-04-12T20:51:58.907Z,96761.81
2023-04-12T20:57:00.969Z,96751.38
2023-04-12T21:02:02.972Z,96747.81
2023-04-12T21:07:05.212Z,96751.66
2023-04-12T21:12:08.760Z,96756.22
2023-04-12T21:17:10.817Z,96741.41
2023-04-12T21:22:12.615Z,96734.31
2023-04-12T21:27:14.700Z,96727.63
2023-04-12T21:32:17.127Z,96757.66
2023-04-12T21:37:22.156Z,96747.66
2023-04-12T21:42:24.442Z,96747.66
2023-04-12T21:47:26.303Z,96753.09
2023-04-12T21:52:28.176Z,96763.66
2023-04-12T21:57:31.510Z,96756.28
2023-04-12T22:02:33.463Z,96747.81
2023-04-12T22:07:35.539Z,96747.13
2023-04-12T22:12:40.303Z,96733.94
2023-04-12T22:17:42.877Z,96754.22
2023-04-12T22:22:44.736Z,96766.66
2023-04-12T22:27:46.713Z,96745.25
2023-04-12T22:32:48.654Z,96755.72
2023-04-12T22:37:50.895Z,96748.78
2023-04-12T22:42:53.912Z,96777.53
2023-04-12T22:47:55.798Z,96766.25
2023-04-12T22:52:58.063Z,96780.25
2023-04-12T22:58:00.400Z,96791.16
2023-04-12T23:03:04.150Z,96802.38
2023-04-12T23:08:06.173Z,96804.66
2023-04-12T23:13:08.792Z,96799.22
2023-04-12T23:18:10.915Z,96813.97
2023-04-12T23:23:13.595Z,96816.28
2023-04-12T23:28:19.459Z,96807.72
2023-04-12T23:33:22.046Z,96812.31
2023-04-12T23:38:27.176Z,96808.00
2023-04-12T23:43:29.656Z,96799.16
2023-04-12T23:48:32.850Z,96810.84
2023-04-12T23:53:34.718Z,96824.81
2023-04-12T23:58:36.760Z,96825.63
